sensor_id;sensor_type;location;lat;lon;timestamp;temperature;humidity
27779;DHT22;30234;48.090;11.464;2023-08-06T00:00:36;14.30;99.90
27779;DHT22;30234;48.090;11.464;2023-08-06T00:04:36;14.50;99.90
27779;DHT22;30234;48.090;11.464;2023-08-06T00:08:37;14.50;99.90
27779;DHT22;30234;48.090;11.464;2023-08-06T00:12:38;14.50;99.90
27779;DHT22;30234;48.090;11.464;2023-08-06T00:16:39;14.50;99.90
27779;DHT22;30234;48.090;11.464;2023-08-06T00:20:40;14.40;99.90
27779;DHT22;30234;48.090;11.464;2023-08-06T00:24:44;14.30;99.90
27779;DHT22;30234;48.090;11.464;2023-08-06T00:28:44;14.00;99.90
27779;DHT22;30234;48.090;11.464;2023-08-06T00:32:45;13.80;99.90
27779;DHT22;30234;48.090;11.464;2023-08-06T00:36:46;13.70;99.90
27779;DHT22;30234;48.090;11.464;2023-08-06T00:40:47;13.80;99.90
27779;DHT22;30234;48.090;11.464;2023-08-06T00:44:48;13.70;99.90
27779;DHT22;30234;48.090;11.464;2023-08-06T00:48:50;13.70;99.90
27779;DHT22;30234;48.090;11.464;2023-08-06T00:52:52;13.60;99.90
27779;DHT22;30234;48.090;11.464;2023-08-06T00:56:53;13.50;99.90
27779;DHT22;30234;48.090;11.464;2023-08-06T01:00:54;13.60;99.90
27779;DHT22;30234;48.090;11.464;2023-08-06T01:04:55;13.60;99.90
27779;DHT22;30234;48.090;11.464;2023-08-06T01:09:03;13.50;99.90
27779;DHT22;30234;48.090;11.464;2023-08-06T01:13:48;13.50;99.90
27779;DHT22;30234;48.090;11.464;2023-08-06T01:17:52;13.60;99.90
27779;DHT22;30234;48.090;11.464;2023-08-06T01:21:53;13.60;99.90
27779;DHT22;30234;48.090;11.464;2023-08-06T01:26:30;13.60;99.90
27779;DHT22;30234;48.090;11.464;2023-08-06T01:30:37;13.60;99.90
27779;DHT22;30234;48.090;11.464;2023-08-06T01:34:43;13.60;99.90
27779;DHT22;30234;48.090;11.464;2023-08-06T01:38:45;13.60;99.90
27779;DHT22;30234;48.090;11.464;2023-08-06T01:42:46;13.50;99.90
27779;DHT22;30234;48.090;11.464;2023-08-06T01:46:47;13.60;99.90
27779;DHT22;30234;48.090;11.464;2023-08-06T01:50:48;13.60;99.90
27779;DHT22;30234;48.090;11.464;2023-08-06T01:54:49;13.60;99.90
27779;DHT22;30234;48.090;11.464;2023-08-06T01:58:49;13.40;99.90
27779;DHT22;30234;48.090;11.464;2023-08-06T02:02:50;13.50;99.90
27779;DHT22;30234;48.090;11.464;2023-08-06T02:06:51;13.40;99.90
27779;DHT22;30234;48.090;11.464;2023-08-06T02:10:54;13.40;99.90
27779;DHT22;30234;48.090;11.464;2023-08-06T02:14:55;13.30;99.90
27779;DHT22;30234;48.090;11.464;2023-08-06T02:18:56;13.30;99.90
27779;DHT22;30234;48.090;11.464;2023-08-06T02:23:01;13.30;99.90
27779;DHT22;30234;48.090;11.464;2023-08-06T02:27:01;13.20;99.90
27779;DHT22;30234;48.090;11.464;2023-08-06T02:31:02;13.20;99.90
27779;DHT22;30234;48.090;11.464;2023-08-06T02:35:03;13.10;99.90
27779;DHT22;30234;48.090;11.464;2023-08-06T02:39:04;13.20;99.90
27779;DHT22;30234;48.090;11.464;2023-08-06T02:43:05;13.20;99.90
27779;DHT22;30234;48.090;11.464;2023-08-06T02:47:06;13.10;99.90
27779;DHT22;30234;48.090;11.464;2023-08-06T02:51:07;13.10;99.90
27779;DHT22;30234;48.090;11.464;2023-08-06T02:55:08;13.10;99.90
27779;DHT22;30234;48.090;11.464;2023-08-06T02:59:09;13.00;99.90
27779;DHT22;30234;48.090;11.464;2023-08-06T03:03:10;12.90;99.90
27779;DHT22;30234;48.090;11.464;2023-08-06T03:07:10;12.70;99.90
27779;DHT22;30234;48.090;11.464;2023-08-06T03:11:11;12.70;99.90
27779;DHT22;30234;48.090;11.464;2023-08-06T03:15:12;12.80;99.90
27779;DHT22;30234;48.090;11.464;2023-08-06T03:19:13;12.80;99.90
27779;DHT22;30234;48.090;11.464;2023-08-06T03:23:14;12.70;99.90
27779;DHT22;30234;48.090;11.464;2023-08-06T03:27:15;12.70;99.90
27779;DHT22;30234;48.090;11.464;2023-08-06T03:31:16;12.70;99.90
27779;DHT22;30234;48.090;11.464;2023-08-06T03:35:17;12.80;99.90
27779;DHT22;30234;48.090;11.464;2023-08-06T03:39:18;12.70;99.90
27779;DHT22;30234;48.090;11.464;2023-08-06T03:43:19;12.80;99.90
27779;DHT22;30234;48.090;11.464;2023-08-06T03:47:19;12.70;99.90
27779;DHT22;30234;48.090;11.464;2023-08-06T03:51:20;12.70;99.90
27779;DHT22;30234;48.090;11.464;2023-08-06T03:55:21;12.60;99.90
27779;DHT22;30234;48.090;11.464;2023-08-06T03:59:22;12.60;99.90
27779;DHT22;30234;48.090;11.464;2023-08-06T04:03:23;12.60;99.90
27779;DHT22;30234;48.090;11.464;2023-08-06T04:07:24;12.60;99.90
27779;DHT22;30234;48.090;11.464;2023-08-06T04:11:25;12.60;99.90
27779;DHT22;30234;48.090;11.464;2023-08-06T04:15:26;12.70;99.90
27779;DHT22;30234;48.090;11.464;2023-08-06T04:19:27;12.70;99.90
27779;DHT22;30234;48.090;11.464;2023-08-06T04:23:28;12.80;99.90
27779;DHT22;30234;48.090;11.464;2023-08-06T04:27:29;12.90;99.90
27779;DHT22;30234;48.090;11.464;2023-08-06T04:31:29;12.90;99.90
27779;DHT22;30234;48.090;11.464;2023-08-06T04:35:31;12.90;99.90
27779;DHT22;30234;48.090;11.464;2023-08-06T04:39:32;13.00;99.90
27779;DHT22;30234;48.090;11.464;2023-08-06T04:43:32;13.20;99.90
27779;DHT22;30234;48.090;11.464;2023-08-06T04:47:33;13.30;99.90
27779;DHT22;30234;48.090;11.464;2023-08-06T04:51:34;13.40;99.90
27779;DHT22;30234;48.090;11.464;2023-08-06T04:55:35;14.20;99.90
27779;DHT22;30234;48.090;11.464;2023-08-06T04:59:36;15.00;99.90
27779;DHT22;30234;48.090;11.464;2023-08-06T05:03:37;14.60;99.90
27779;DHT22;30234;48.090;11.464;2023-08-06T05:07:38;14.10;99.90
27779;DHT22;30234;48.090;11.464;2023-08-06T05:11:38;14.00;99.90
27779;DHT22;30234;48.090;11.464;2023-08-06T05:15:39;14.00;99.90
27779;DHT22;30234;48.090;11.464;2023-08-06T05:19:42;14.00;99.90
27779;DHT22;30234;48.090;11.464;2023-08-06T05:23:43;13.90;99.90
27779;DHT22;30234;48.090;11.464;2023-08-06T05:27:44;14.00;99.90
27779;DHT22;30234;48.090;11.464;2023-08-06T05:31:45;14.00;99.90
27779;DHT22;30234;48.090;11.464;2023-08-06T05:35:46;14.10;99.90
27779;DHT22;30234;48.090;11.464;2023-08-06T05:39:47;14.30;99.90
27779;DHT22;30234;48.090;11.464;2023-08-06T05:43:48;14.40;99.90
27779;DHT22;30234;48.090;11.464;2023-08-06T05:47:48;14.50;99.90
27779;DHT22;30234;48.090;11.464;2023-08-06T05:51:50;14.70;99.90
27779;DHT22;30234;48.090;11.464;2023-08-06T05:55:53;14.90;99.90
27779;DHT22;30234;48.090;11.464;2023-08-06T05:59:54;15.10;99.90
27779;DHT22;30234;48.090;11.464;2023-08-06T06:03:55;15.40;99.90
27779;DHT22;30234;48.090;11.464;2023-08-06T06:07:56;15.50;99.90
27779;DHT22;30234;48.090;11.464;2023-08-06T06:11:57;15.80;99.90
27779;DHT22;30234;48.090;11.464;2023-08-06T06:15:58;15.90;99.90
27779;DHT22;30234;48.090;11.464;2023-08-06T06:19:59;16.10;99.90
27779;DHT22;30234;48.090;11.464;2023-08-06T06:24:00;16.30;99.90
27779;DHT22;30234;48.090;11.464;2023-08-06T06:28:00;16.60;99.90
27779;DHT22;30234;48.090;11.464;2023-08-06T06:32:01;17.00;99.90
27779;DHT22;30234;48.090;11.464;2023-08-06T06:36:02;17.90;99.90
27779;DHT22;30234;48.090;11.464;2023-08-06T06:40:04;18.00;99.90
27779;DHT22;30234;48.090;11.464;2023-08-06T06:44:05;19.20;99.90
27779;DHT22;30234;48.090;11.464;2023-08-06T06:48:06;19.10;99.90
27779;DHT22;30234;48.090;11.464;2023-08-06T06:52:07;20.00;99.90
27779;DHT22;30234;48.090;11.464;2023-08-06T06:56:08;19.30;99.90
27779;DHT22;30234;48.090;11.464;2023-08-06T07:00:09;18.90;99.90
27779;DHT22;30234;48.090;11.464;2023-08-06T07:04:11;19.90;99.90
27779;DHT22;30234;48.090;11.464;2023-08-06T07:08:11;20.70;99.90
27779;DHT22;30234;48.090;11.464;2023-08-06T07:12:12;20.80;99.90
27779;DHT22;30234;48.090;11.464;2023-08-06T07:16:13;18.70;99.90
27779;DHT22;30234;48.090;11.464;2023-08-06T07:20:14;16.80;99.90
27779;DHT22;30234;48.090;11.464;2023-08-06T07:24:15;15.80;99.90
27779;DHT22;30234;48.090;11.464;2023-08-06T07:28:17;15.30;99.90
27779;DHT22;30234;48.090;11.464;2023-08-06T07:32:18;14.80;99.90
27779;DHT22;30234;48.090;11.464;2023-08-06T07:36:18;14.90;99.90
27779;DHT22;30234;48.090;11.464;2023-08-06T07:40:19;15.00;99.90
27779;DHT22;30234;48.090;11.464;2023-08-06T07:44:20;15.40;99.90
27779;DHT22;30234;48.090;11.464;2023-08-06T07:48:21;15.80;99.90
27779;DHT22;30234;48.090;11.464;2023-08-06T07:52:22;15.90;99.90
27779;DHT22;30234;48.090;11.464;2023-08-06T07:56:23;16.30;99.90
27779;DHT22;30234;48.090;11.464;2023-08-06T08:00:24;17.00;99.90
27779;DHT22;30234;48.090;11.464;2023-08-06T08:04:24;17.90;99.90
27779;DHT22;30234;48.090;11.464;2023-08-06T08:08:25;19.40;99.90
27779;DHT22;30234;48.090;11.464;2023-08-06T08:12:26;20.20;99.90
27779;DHT22;30234;48.090;11.464;2023-08-06T08:16:28;21.60;99.90
27779;DHT22;30234;48.090;11.464;2023-08-06T08:20:29;21.40;99.90
27779;DHT22;30234;48.090;11.464;2023-08-06T08:24:32;22.00;99.90
27779;DHT22;30234;48.090;11.464;2023-08-06T08:28:33;20.00;99.90
27779;DHT22;30234;48.090;11.464;2023-08-06T08:32:33;18.70;99.90
27779;DHT22;30234;48.090;11.464;2023-08-06T08:36:34;18.90;99.90
27779;DHT22;30234;48.090;11.464;2023-08-06T08:40:42;19.40;99.90
27779;DHT22;30234;48.090;11.464;2023-08-06T08:44:47;19.10;99.90
27779;DHT22;30234;48.090;11.464;2023-08-06T08:48:48;18.50;99.90
27779;DHT22;30234;48.090;11.464;2023-08-06T08:52:50;17.40;99.90
27779;DHT22;30234;48.090;11.464;2023-08-06T08:56:51;17.20;99.90
27779;DHT22;30234;48.090;11.464;2023-08-06T09:00:53;17.50;99.90
27779;DHT22;30234;48.090;11.464;2023-08-06T09:04:55;17.00;99.90
27779;DHT22;30234;48.090;11.464;2023-08-06T09:09:09;16.60;99.90
27779;DHT22;30234;48.090;11.464;2023-08-06T09:13:12;15.70;99.90
27779;DHT22;30234;48.090;11.464;2023-08-06T09:17:14;15.40;99.90
27779;DHT22;30234;48.090;11.464;2023-08-06T09:21:15;15.80;99.90
27779;DHT22;30234;48.090;11.464;2023-08-06T09:25:23;15.70;99.90
27779;DHT22;30234;48.090;11.464;2023-08-06T09:29:31;16.20;99.90
27779;DHT22;30234;48.090;11.464;2023-08-06T09:33:33;16.70;99.90
27779;DHT22;30234;48.090;11.464;2023-08-06T09:37:36;18.10;99.90
27779;DHT22;30234;48.090;11.464;2023-08-06T09:41:37;18.40;99.90
27779;DHT22;30234;48.090;11.464;2023-08-06T09:45:38;18.70;99.90
27779;DHT22;30234;48.090;11.464;2023-08-06T09:49:43;19.20;99.90
27779;DHT22;30234;48.090;11.464;2023-08-06T09:53:47;19.40;99.90
27779;DHT22;30234;48.090;11.464;2023-08-06T09:57:49;19.50;99.90
27779;DHT22;30234;48.090;11.464;2023-08-06T10:01:50;18.20;99.90
27779;DHT22;30234;48.090;11.464;2023-08-06T10:05:51;18.40;99.90
27779;DHT22;30234;48.090;11.464;2023-08-06T10:09:52;18.80;99.90
27779;DHT22;30234;48.090;11.464;2023-08-06T10:14:20;18.60;99.90
27779;DHT22;30234;48.090;11.464;2023-08-06T10:18:29;18.90;99.90
27779;DHT22;30234;48.090;11.464;2023-08-06T10:22:33;19.50;99.90
27779;DHT22;30234;48.090;11.464;2023-08-06T10:26:34;18.90;99.90
27779;DHT22;30234;48.090;11.464;2023-08-06T10:30:44;18.40;99.90
27779;DHT22;30234;48.090;11.464;2023-08-06T10:34:58;17.60;99.90
27779;DHT22;30234;48.090;11.464;2023-08-06T10:39:00;17.70;99.90
27779;DHT22;30234;48.090;11.464;2023-08-06T10:43:04;17.20;99.90
27779;DHT22;30234;48.090;11.464;2023-08-06T10:47:39;17.20;99.90
27779;DHT22;30234;48.090;11.464;2023-08-06T10:51:40;17.20;99.90
27779;DHT22;30234;48.090;11.464;2023-08-06T10:55:41;17.10;99.90
27779;DHT22;30234;48.090;11.464;2023-08-06T10:59:42;17.40;99.90
27779;DHT22;30234;48.090;11.464;2023-08-06T11:03:45;17.30;99.90
27779;DHT22;30234;48.090;11.464;2023-08-06T11:07:47;17.60;99.90
27779;DHT22;30234;48.090;11.464;2023-08-06T11:11:49;18.00;99.90
27779;DHT22;30234;48.090;11.464;2023-08-06T11:15:52;17.90;99.90
27779;DHT22;30234;48.090;11.464;2023-08-06T11:19:53;16.70;99.90
27779;DHT22;30234;48.090;11.464;2023-08-06T11:23:55;16.30;99.90
27779;DHT22;30234;48.090;11.464;2023-08-06T11:27:56;16.60;99.90
27779;DHT22;30234;48.090;11.464;2023-08-06T11:32:06;16.50;99.90
27779;DHT22;30234;48.090;11.464;2023-08-06T11:36:08;16.40;99.90
27779;DHT22;30234;48.090;11.464;2023-08-06T11:40:09;16.70;99.90
27779;DHT22;30234;48.090;11.464;2023-08-06T11:44:13;17.00;99.90
27779;DHT22;30234;48.090;11.464;2023-08-06T11:48:14;17.60;99.90
27779;DHT22;30234;48.090;11.464;2023-08-06T11:52:23;17.60;99.90
27779;DHT22;30234;48.090;11.464;2023-08-06T11:56:25;17.10;99.90
27779;DHT22;30234;48.090;11.464;2023-08-06T12:00:26;16.40;99.90
27779;DHT22;30234;48.090;11.464;2023-08-06T12:04:27;16.80;99.90
27779;DHT22;30234;48.090;11.464;2023-08-06T12:08:28;17.10;99.90
27779;DHT22;30234;48.090;11.464;2023-08-06T12:12:29;16.90;99.90
27779;DHT22;30234;48.090;11.464;2023-08-06T12:16:30;16.80;99.90
27779;DHT22;30234;48.090;11.464;2023-08-06T12:20:31;16.70;99.90
27779;DHT22;30234;48.090;11.464;2023-08-06T12:24:32;16.80;99.90
27779;DHT22;30234;48.090;11.464;2023-08-06T12:28:33;16.70;99.90
27779;DHT22;30234;48.090;11.464;2023-08-06T12:32:34;16.80;99.90
27779;DHT22;30234;48.090;11.464;2023-08-06T12:36:35;16.70;99.90
27779;DHT22;30234;48.090;11.464;2023-08-06T12:40:36;16.40;99.90
27779;DHT22;30234;48.090;11.464;2023-08-06T12:44:37;16.30;99.90
27779;DHT22;30234;48.090;11.464;2023-08-06T12:48:38;15.50;99.90
27779;DHT22;30234;48.090;11.464;2023-08-06T12:52:38;14.70;99.90
27779;DHT22;30234;48.090;11.464;2023-08-06T12:56:39;14.60;99.90
27779;DHT22;30234;48.090;11.464;2023-08-06T13:00:40;14.20;99.90
27779;DHT22;30234;48.090;11.464;2023-08-06T13:04:41;14.00;99.90
27779;DHT22;30234;48.090;11.464;2023-08-06T13:08:42;14.10;99.90
27779;DHT22;30234;48.090;11.464;2023-08-06T13:12:43;14.10;99.90
27779;DHT22;30234;48.090;11.464;2023-08-06T13:16:44;14.10;99.90
27779;DHT22;30234;48.090;11.464;2023-08-06T13:20:46;14.20;99.90
27779;DHT22;30234;48.090;11.464;2023-08-06T13:24:49;14.10;99.90
27779;DHT22;30234;48.090;11.464;2023-08-06T13:28:49;13.80;99.90
27779;DHT22;30234;48.090;11.464;2023-08-06T13:32:51;13.80;99.90
27779;DHT22;30234;48.090;11.464;2023-08-06T13:36:52;14.10;99.90
27779;DHT22;30234;48.090;11.464;2023-08-06T13:40:53;14.40;99.90
27779;DHT22;30234;48.090;11.464;2023-08-06T13:44:54;14.40;99.90
27779;DHT22;30234;48.090;11.464;2023-08-06T13:48:59;14.20;99.90
27779;DHT22;30234;48.090;11.464;2023-08-06T13:53:00;14.10;99.90
27779;DHT22;30234;48.090;11.464;2023-08-06T13:57:02;14.10;99.90
27779;DHT22;30234;48.090;11.464;2023-08-06T14:01:03;13.90;99.90
27779;DHT22;30234;48.090;11.464;2023-08-06T14:05:04;13.60;99.90
27779;DHT22;30234;48.090;11.464;2023-08-06T14:09:06;13.80;99.90
27779;DHT22;30234;48.090;11.464;2023-08-06T14:13:07;13.70;99.90
27779;DHT22;30234;48.090;11.464;2023-08-06T14:17:07;13.50;99.90
27779;DHT22;30234;48.090;11.464;2023-08-06T14:21:08;13.30;99.90
27779;DHT22;30234;48.090;11.464;2023-08-06T14:25:09;13.20;99.90
27779;DHT22;30234;48.090;11.464;2023-08-06T14:29:10;13.30;99.90
27779;DHT22;30234;48.090;11.464;2023-08-06T14:33:11;13.10;99.90
27779;DHT22;30234;48.090;11.464;2023-08-06T14:37:12;12.90;99.90
27779;DHT22;30234;48.090;11.464;2023-08-06T14:41:13;12.80;99.90
27779;DHT22;30234;48.090;11.464;2023-08-06T14:45:14;12.70;99.90
27779;DHT22;30234;48.090;11.464;2023-08-06T14:49:15;12.80;99.90
27779;DHT22;30234;48.090;11.464;2023-08-06T14:53:15;12.60;99.90
27779;DHT22;30234;48.090;11.464;2023-08-06T14:57:16;12.50;99.90
27779;DHT22;30234;48.090;11.464;2023-08-06T15:01:17;12.60;99.90
27779;DHT22;30234;48.090;11.464;2023-08-06T15:05:18;12.60;99.90
27779;DHT22;30234;48.090;11.464;2023-08-06T15:09:19;12.70;99.90
27779;DHT22;30234;48.090;11.464;2023-08-06T15:13:22;12.70;99.90
27779;DHT22;30234;48.090;11.464;2023-08-06T15:17:23;12.80;99.90
27779;DHT22;30234;48.090;11.464;2023-08-06T15:21:24;13.00;99.90
27779;DHT22;30234;48.090;11.464;2023-08-06T15:25:24;13.30;99.90
27779;DHT22;30234;48.090;11.464;2023-08-06T15:29:25;13.40;99.90
27779;DHT22;30234;48.090;11.464;2023-08-06T15:33:26;13.20;99.90
27779;DHT22;30234;48.090;11.464;2023-08-06T15:37:27;13.00;99.90
27779;DHT22;30234;48.090;11.464;2023-08-06T15:41:30;13.00;99.90
27779;DHT22;30234;48.090;11.464;2023-08-06T15:45:31;13.00;99.90
27779;DHT22;30234;48.090;11.464;2023-08-06T15:49:32;13.10;99.90
27779;DHT22;30234;48.090;11.464;2023-08-06T15:53:33;13.20;99.90
27779;DHT22;30234;48.090;11.464;2023-08-06T15:57:34;13.20;99.90
27779;DHT22;30234;48.090;11.464;2023-08-06T16:01:35;13.10;99.90
27779;DHT22;30234;48.090;11.464;2023-08-06T16:05:36;13.10;99.90
27779;DHT22;30234;48.090;11.464;2023-08-06T16:09:37;13.10;99.90
27779;DHT22;30234;48.090;11.464;2023-08-06T16:13:38;13.30;99.90
27779;DHT22;30234;48.090;11.464;2023-08-06T16:17:38;13.20;99.90
27779;DHT22;30234;48.090;11.464;2023-08-06T16:21:39;13.20;99.90
27779;DHT22;30234;48.090;11.464;2023-08-06T16:25:40;13.00;99.90
27779;DHT22;30234;48.090;11.464;2023-08-06T16:29:45;12.90;99.90
27779;DHT22;30234;48.090;11.464;2023-08-06T16:33:49;12.90;99.90
27779;DHT22;30234;48.090;11.464;2023-08-06T16:37:50;12.80;99.90
27779;DHT22;30234;48.090;11.464;2023-08-06T16:41:51;12.80;99.90
27779;DHT22;30234;48.090;11.464;2023-08-06T16:45:52;12.70;99.90
27779;DHT22;30234;48.090;11.464;2023-08-06T16:49:54;12.80;99.90
27779;DHT22;30234;48.090;11.464;2023-08-06T16:53:55;12.90;99.90
27779;DHT22;30234;48.090;11.464;2023-08-06T16:57:56;12.90;99.90
27779;DHT22;30234;48.090;11.464;2023-08-06T17:01:57;12.90;99.90
27779;DHT22;30234;48.090;11.464;2023-08-06T17:06:01;13.00;99.90
27779;DHT22;30234;48.090;11.464;2023-08-06T17:10:03;13.00;99.90
27779;DHT22;30234;48.090;11.464;2023-08-06T17:14:04;13.00;99.90
27779;DHT22;30234;48.090;11.464;2023-08-06T17:18:05;13.00;99.90
27779;DHT22;30234;48.090;11.464;2023-08-06T17:22:06;13.00;99.90
27779;DHT22;30234;48.090;11.464;2023-08-06T17:26:06;12.70;99.90
27779;DHT22;30234;48.090;11.464;2023-08-06T17:30:08;12.50;99.90
27779;DHT22;30234;48.090;11.464;2023-08-06T17:34:08;12.30;99.90
27779;DHT22;30234;48.090;11.464;2023-08-06T17:38:10;12.20;99.90
27779;DHT22;30234;48.090;11.464;2023-08-06T17:42:11;12.30;99.90
27779;DHT22;30234;48.090;11.464;2023-08-06T17:46:12;12.30;99.90
27779;DHT22;30234;48.090;11.464;2023-08-06T17:50:13;12.30;99.90
27779;DHT22;30234;48.090;11.464;2023-08-06T17:54:14;12.20;99.90
27779;DHT22;30234;48.090;11.464;2023-08-06T17:58:15;12.10;99.90
27779;DHT22;30234;48.090;11.464;2023-08-06T18:02:16;12.10;99.90
27779;DHT22;30234;48.090;11.464;2023-08-06T18:06:17;12.00;99.90
27779;DHT22;30234;48.090;11.464;2023-08-06T18:10:18;11.90;99.90
27779;DHT22;30234;48.090;11.464;2023-08-06T18:14:19;11.90;99.90
27779;DHT22;30234;48.090;11.464;2023-08-06T18:18:20;11.90;99.90
27779;DHT22;30234;48.090;11.464;2023-08-06T18:22:21;11.90;99.90
27779;DHT22;30234;48.090;11.464;2023-08-06T18:26:22;11.90;99.90
27779;DHT22;30234;48.090;11.464;2023-08-06T18:30:22;12.00;99.90
27779;DHT22;30234;48.090;11.464;2023-08-06T18:34:23;12.10;99.90
27779;DHT22;30234;48.090;11.464;2023-08-06T18:38:24;12.10;99.90
27779;DHT22;30234;48.090;11.464;2023-08-06T18:42:27;12.10;99.90
27779;DHT22;30234;48.090;11.464;2023-08-06T18:46:29;12.10;99.90
27779;DHT22;30234;48.090;11.464;2023-08-06T18:50:30;12.20;99.90
27779;DHT22;30234;48.090;11.464;2023-08-06T18:54:35;12.20;99.90
27779;DHT22;30234;48.090;11.464;2023-08-06T18:58:36;12.30;99.90
27779;DHT22;30234;48.090;11.464;2023-08-06T19:02:37;12.20;99.90
27779;DHT22;30234;48.090;11.464;2023-08-06T19:06:38;12.10;99.90
27779;DHT22;30234;48.090;11.464;2023-08-06T19:10:39;12.10;99.90
27779;DHT22;30234;48.090;11.464;2023-08-06T19:14:41;12.10;99.90
27779;DHT22;30234;48.090;11.464;2023-08-06T19:18:42;12.10;99.90
27779;DHT22;30234;48.090;11.464;2023-08-06T19:22:43;12.00;99.90
27779;DHT22;30234;48.090;11.464;2023-08-06T19:26:44;11.90;99.90
27779;DHT22;30234;48.090;11.464;2023-08-06T19:30:45;11.90;99.90
27779;DHT22;30234;48.090;11.464;2023-08-06T19:34:45;11.90;99.90
27779;DHT22;30234;48.090;11.464;2023-08-06T19:38:46;11.90;99.90
27779;DHT22;30234;48.090;11.464;2023-08-06T19:42:47;11.80;99.90
27779;DHT22;30234;48.090;11.464;2023-08-06T19:46:49;11.80;99.90
27779;DHT22;30234;48.090;11.464;2023-08-06T19:50:53;11.80;99.90
27779;DHT22;30234;48.090;11.464;2023-08-06T19:55:00;11.80;99.90
27779;DHT22;30234;48.090;11.464;2023-08-06T19:59:02;11.80;99.90
27779;DHT22;30234;48.090;11.464;2023-08-06T20:03:03;11.70;99.90
27779;DHT22;30234;48.090;11.464;2023-08-06T20:07:06;11.70;99.90
27779;DHT22;30234;48.090;11.464;2023-08-06T20:11:06;11.80;99.90
27779;DHT22;30234;48.090;11.464;2023-08-06T20:15:07;11.70;99.90
27779;DHT22;30234;48.090;11.464;2023-08-06T20:19:08;11.80;99.90
27779;DHT22;30234;48.090;11.464;2023-08-06T20:23:09;11.80;99.90
27779;DHT22;30234;48.090;11.464;2023-08-06T20:27:10;11.70;99.90
27779;DHT22;30234;48.090;11.464;2023-08-06T20:31:11;11.70;99.90
27779;DHT22;30234;48.090;11.464;2023-08-06T20:35:12;11.70;99.90
27779;DHT22;30234;48.090;11.464;2023-08-06T20:39:13;11.70;99.90
27779;DHT22;30234;48.090;11.464;2023-08-06T20:43:13;11.60;99.90
27779;DHT22;30234;48.090;11.464;2023-08-06T20:47:15;11.60;99.90
27779;DHT22;30234;48.090;11.464;2023-08-06T20:51:16;11.70;99.90
27779;DHT22;30234;48.090;11.464;2023-08-06T20:55:17;11.70;99.90
27779;DHT22;30234;48.090;11.464;2023-08-06T20:59:19;11.70;99.90
27779;DHT22;30234;48.090;11.464;2023-08-06T21:03:20;11.70;99.90
27779;DHT22;30234;48.090;11.464;2023-08-06T21:07:20;11.80;99.90
27779;DHT22;30234;48.090;11.464;2023-08-06T21:11:21;11.80;99.90
27779;DHT22;30234;48.090;11.464;2023-08-06T21:15:22;11.90;99.90
27779;DHT22;30234;48.090;11.464;2023-08-06T21:19:23;11.90;99.90
27779;DHT22;30234;48.090;11.464;2023-08-06T21:23:24;11.90;99.90
27779;DHT22;30234;48.090;11.464;2023-08-06T21:27:25;11.90;99.90
27779;DHT22;30234;48.090;11.464;2023-08-06T21:31:27;11.90;99.90
27779;DHT22;30234;48.090;11.464;2023-08-06T21:35:28;11.90;99.90
27779;DHT22;30234;48.090;11.464;2023-08-06T21:39:29;11.90;99.90
27779;DHT22;30234;48.090;11.464;2023-08-06T21:43:34;12.00;99.90
27779;DHT22;30234;48.090;11.464;2023-08-06T21:47:36;12.00;99.90
27779;DHT22;30234;48.090;11.464;2023-08-06T21:51:37;12.00;99.90
27779;DHT22;30234;48.090;11.464;2023-08-06T21:55:37;12.10;99.90
27779;DHT22;30234;48.090;11.464;2023-08-06T21:59:38;12.10;99.90
27779;DHT22;30234;48.090;11.464;2023-08-06T22:03:40;12.00;99.90
27779;DHT22;30234;48.090;11.464;2023-08-06T22:07:41;12.00;99.90
27779;DHT22;30234;48.090;11.464;2023-08-06T22:11:42;12.10;99.90
27779;DHT22;30234;48.090;11.464;2023-08-06T22:15:43;12.10;99.90
27779;DHT22;30234;48.090;11.464;2023-08-06T22:19:44;12.20;99.90
27779;DHT22;30234;48.090;11.464;2023-08-06T22:23:45;12.20;99.90
27779;DHT22;30234;48.090;11.464;2023-08-06T22:27:46;12.20;99.90
27779;DHT22;30234;48.090;11.464;2023-08-06T22:31:47;12.20;99.90
27779;DHT22;30234;48.090;11.464;2023-08-06T22:35:48;12.30;99.90
27779;DHT22;30234;48.090;11.464;2023-08-06T22:39:50;12.30;99.90
27779;DHT22;30234;48.090;11.464;2023-08-06T22:43:53;12.30;99.90
27779;DHT22;30234;48.090;11.464;2023-08-06T22:47:54;12.20;99.90
27779;DHT22;30234;48.090;11.464;2023-08-06T22:51:55;12.20;99.90
27779;DHT22;30234;48.090;11.464;2023-08-06T22:55:56;12.20;99.90
27779;DHT22;30234;48.090;11.464;2023-08-06T22:59:57;12.20;99.90
27779;DHT22;30234;48.090;11.464;2023-08-06T23:03:58;12.20;99.90
27779;DHT22;30234;48.090;11.464;2023-08-06T23:07:59;12.20;99.90
27779;DHT22;30234;48.090;11.464;2023-08-06T23:12:00;12.10;99.90
27779;DHT22;30234;48.090;11.464;2023-08-06T23:16:01;12.00;99.90
27779;DHT22;30234;48.090;11.464;2023-08-06T23:20:02;12.00;99.90
27779;DHT22;30234;48.090;11.464;2023-08-06T23:24:03;12.00;99.90
27779;DHT22;30234;48.090;11.464;2023-08-06T23:28:04;12.00;99.90
27779;DHT22;30234;48.090;11.464;2023-08-06T23:32:05;12.10;99.90
27779;DHT22;30234;48.090;11.464;2023-08-06T23:36:06;12.10;99.90
27779;DHT22;30234;48.090;11.464;2023-08-06T23:40:08;12.10;99.90
27779;DHT22;30234;48.090;11.464;2023-08-06T23:44:09;12.10;99.90
27779;DHT22;30234;48.090;11.464;2023-08-06T23:48:09;12.10;99.90
27779;DHT22;30234;48.090;11.464;2023-08-06T23:52:10;12.00;99.90
27779;DHT22;30234;48.090;11.464;2023-08-06T23:56:11;12.00;99.90
